sensor_id;sensor_type;location;lat;lon;timestamp;pressure;altitude;pressure_sealevel;temperature;humidity
57779;BME280;43608;49.486;9.640;2023-08-08T00:00:15;98702.41;;;12.42;86.39
57779;BME280;43608;49.486;9.640;2023-08-08T00:00:45;98732.28;;;12.61;86.54
57779;BME280;43608;49.486;9.640;2023-08-08T00:01:15;98690.91;;;12.38;86.41
57779;BME280;43608;49.486;9.640;2023-08-08T00:01:46;98724.34;;;12.58;86.36
57779;BME280;43608;49.486;9.640;2023-08-08T00:02:16;98723.47;;;12.56;86.36
57779;BME280;43608;49.486;9.640;2023-08-08T00:02:47;98694.44;;;12.39;86.29
57779;BME280;43608;49.486;9.640;2023-08-08T00:03:17;98705.81;;;12.52;86.15
57779;BME280;43608;49.486;9.640;2023-08-08T00:03:47;98733.13;;;12.65;85.99
57779;BME280;43608;49.486;9.640;2023-08-08T00:04:18;98734.03;;;12.64;86.00
57779;BME280;43608;49.486;9.640;2023-08-08T00:04:49;98734.00;;;12.65;86.03
57779;BME280;43608;49.486;9.640;2023-08-08T00:05:20;98741.09;;;12.66;85.95
57779;BME280;43608;49.486;9.640;2023-08-08T00:05:50;98727.81;;;12.65;85.96
57779;BME280;43608;49.486;9.640;2023-08-08T00:06:21;98706.72;;;12.52;85.89
57779;BME280;43608;49.486;9.640;2023-08-08T00:06:51;98719.91;;;12.59;85.99
57779;BME280;43608;49.486;9.640;2023-08-08T00:07:21;98744.63;;;12.68;85.97
57779;BME280;43608;49.486;9.640;2023-08-08T00:07:52;98717.25;;;12.59;85.79
57779;BME280;43608;49.486;9.640;2023-08-08T00:08:22;98720.81;;;12.59;85.83
57779;BME280;43608;49.486;9.640;2023-08-08T00:08:52;98719.00;;;12.61;85.87
57779;BME280;43608;49.486;9.640;2023-08-08T00:09:23;98720.81;;;12.59;86.06
57779;BME280;43608;49.486;9.640;2023-08-08T00:09:53;98741.06;;;12.68;85.84
57779;BME280;43608;49.486;9.640;2023-08-08T00:10:24;98719.88;;;12.62;86.06
57779;BME280;43608;49.486;9.640;2023-08-08T00:10:54;98724.28;;;12.64;85.95
57779;BME280;43608;49.486;9.640;2023-08-08T00:11:24;98719.00;;;12.61;86.03
57779;BME280;43608;49.486;9.640;2023-08-08T00:11:55;98735.75;;;12.68;85.95
57779;BME280;43608;49.486;9.640;2023-08-08T00:12:27;98709.28;;;12.57;85.86
57779;BME280;43608;49.486;9.640;2023-08-08T00:12:58;98702.31;;;12.48;85.70
57779;BME280;43608;49.486;9.640;2023-08-08T00:13:28;98738.41;;;12.68;85.54
57779;BME280;43608;49.486;9.640;2023-08-08T00:13:59;98726.94;;;12.63;85.76
57779;BME280;43608;49.486;9.640;2023-08-08T00:14:29;98718.16;;;12.59;85.76
57779;BME280;43608;49.486;9.640;2023-08-08T00:15:00;98731.34;;;12.67;85.79
57779;BME280;43608;49.486;9.640;2023-08-08T00:15:30;98732.22;;;12.67;85.98
57779;BME280;43608;49.486;9.640;2023-08-08T00:16:01;98724.28;;;12.63;85.75
57779;BME280;43608;49.486;9.640;2023-08-08T00:16:32;98734.00;;;12.67;85.77
57779;BME280;43608;49.486;9.640;2023-08-08T00:17:03;98717.28;;;12.57;85.93
57779;BME280;43608;49.486;9.640;2023-08-08T00:17:33;98728.69;;;12.65;85.71
57779;BME280;43608;49.486;9.640;2023-08-08T00:18:04;98722.50;;;12.65;86.05
57779;BME280;43608;49.486;9.640;2023-08-08T00:18:34;98725.22;;;12.60;86.10
57779;BME280;43608;49.486;9.640;2023-08-08T00:19:05;98720.72;;;12.64;86.04
57779;BME280;43608;49.486;9.640;2023-08-08T00:19:35;98707.56;;;12.54;86.09
57779;BME280;43608;49.486;9.640;2023-08-08T00:20:07;98711.09;;;12.55;86.30
57779;BME280;43608;49.486;9.640;2023-08-08T00:20:37;98695.25;;;12.47;86.10
57779;BME280;43608;49.486;9.640;2023-08-08T00:21:08;98706.69;;;12.51;86.12
57779;BME280;43608;49.486;9.640;2023-08-08T00:21:38;98716.41;;;12.56;86.24
57779;BME280;43608;49.486;9.640;2023-08-08T00:22:08;98702.31;;;12.48;86.27
57779;BME280;43608;49.486;9.640;2023-08-08T00:22:39;98689.94;;;12.44;86.45
57779;BME280;43608;49.486;9.640;2023-08-08T00:23:09;98714.69;;;12.52;86.26
57779;BME280;43608;49.486;9.640;2023-08-08T00:23:39;98714.69;;;12.52;86.51
57779;BME280;43608;49.486;9.640;2023-08-08T00:24:10;98721.72;;;12.56;86.33
57779;BME280;43608;49.486;9.640;2023-08-08T00:24:40;98716.44;;;12.52;86.62
57779;BME280;43608;49.486;9.640;2023-08-08T00:25:11;98712.91;;;12.51;86.37
57779;BME280;43608;49.486;9.640;2023-08-08T00:25:41;98707.63;;;12.48;86.79
57779;BME280;43608;49.486;9.640;2023-08-08T00:26:12;98731.44;;;12.59;86.45
57779;BME280;43608;49.486;9.640;2023-08-08T00:26:42;98735.00;;;12.58;86.57
57779;BME280;43608;49.486;9.640;2023-08-08T00:27:12;98727.94;;;12.55;86.50
57779;BME280;43608;49.486;9.640;2023-08-08T00:27:43;98712.00;;;12.51;86.50
57779;BME280;43608;49.486;9.640;2023-08-08T00:28:14;98718.22;;;12.53;86.41
57779;BME280;43608;49.486;9.640;2023-08-08T00:28:44;98688.22;;;12.42;86.40
57779;BME280;43608;49.486;9.640;2023-08-08T00:29:15;98719.09;;;12.55;86.32
57779;BME280;43608;49.486;9.640;2023-08-08T00:29:45;98705.00;;;12.45;86.29
57779;BME280;43608;49.486;9.640;2023-08-08T00:30:16;98723.50;;;12.54;86.26
57779;BME280;43608;49.486;9.640;2023-08-08T00:30:46;98716.47;;;12.50;86.25
57779;BME280;43608;49.486;9.640;2023-08-08T00:31:18;98730.53;;;12.62;86.30
57779;BME280;43608;49.486;9.640;2023-08-08T00:31:49;98732.28;;;12.61;86.29
57779;BME280;43608;49.486;9.640;2023-08-08T00:32:20;98732.25;;;12.63;86.20
57779;BME280;43608;49.486;9.640;2023-08-08T00:32:50;98730.50;;;12.63;86.39
57779;BME280;43608;49.486;9.640;2023-08-08T00:33:21;98726.97;;;12.61;86.17
57779;BME280;43608;49.486;9.640;2023-08-08T00:33:51;98691.81;;;12.37;86.32
57779;BME280;43608;49.486;9.640;2023-08-08T00:34:21;98732.25;;;12.64;86.28
57779;BME280;43608;49.486;9.640;2023-08-08T00:34:52;98716.38;;;12.58;86.21
57779;BME280;43608;49.486;9.640;2023-08-08T00:35:22;98727.81;;;12.65;86.33
57779;BME280;43608;49.486;9.640;2023-08-08T00:35:52;98731.34;;;12.65;86.27
57779;BME280;43608;49.486;9.640;2023-08-08T00:36:23;98704.97;;;12.50;86.18
57779;BME280;43608;49.486;9.640;2023-08-08T00:36:53;98733.09;;;12.66;86.47
57779;BME280;43608;49.486;9.640;2023-08-08T00:37:24;98707.63;;;12.48;86.07
57779;BME280;43608;49.486;9.640;2023-08-08T00:37:54;98709.34;;;12.54;86.29
57779;BME280;43608;49.486;9.640;2023-08-08T00:38:24;98733.09;;;12.66;86.25
57779;BME280;43608;49.486;9.640;2023-08-08T00:38:55;98735.78;;;12.65;86.05
57779;BME280;43608;49.486;9.640;2023-08-08T00:39:25;98726.94;;;12.66;86.10
57779;BME280;43608;49.486;9.640;2023-08-08T00:39:55;98720.78;;;12.61;85.96
57779;BME280;43608;49.486;9.640;2023-08-08T00:40:26;98734.81;;;12.70;86.11
57779;BME280;43608;49.486;9.640;2023-08-08T00:40:56;98712.84;;;12.56;86.01
57779;BME280;43608;49.486;9.640;2023-08-08T00:41:26;98738.38;;;12.71;85.98
57779;BME280;43608;49.486;9.640;2023-08-08T00:41:57;98720.72;;;12.64;85.88
57779;BME280;43608;49.486;9.640;2023-08-08T00:42:27;98732.19;;;12.72;85.94
57779;BME280;43608;49.486;9.640;2023-08-08T00:42:57;98719.84;;;12.65;86.05
57779;BME280;43608;49.486;9.640;2023-08-08T00:43:28;98718.03;;;12.68;85.77
57779;BME280;43608;49.486;9.640;2023-08-08T00:43:58;98719.84;;;12.65;85.91
57779;BME280;43608;49.486;9.640;2023-08-08T00:44:29;98722.44;;;12.68;85.98
57779;BME280;43608;49.486;9.640;2023-08-08T00:44:59;98719.84;;;12.65;86.19
57779;BME280;43608;49.486;9.640;2023-08-08T00:45:32;98735.69;;;12.74;85.90
57779;BME280;43608;49.486;9.640;2023-08-08T00:46:02;98711.00;;;12.61;85.99
57779;BME280;43608;49.486;9.640;2023-08-08T00:46:33;98704.84;;;12.59;86.12
57779;BME280;43608;49.486;9.640;2023-08-08T00:47:03;98733.00;;;12.74;86.05
57779;BME280;43608;49.486;9.640;2023-08-08T00:47:34;98705.69;;;12.61;85.96
57779;BME280;43608;49.486;9.640;2023-08-08T00:48:04;98708.31;;;12.63;85.94
57779;BME280;43608;49.486;9.640;2023-08-08T00:48:36;98719.78;;;12.69;86.12
57779;BME280;43608;49.486;9.640;2023-08-08T00:49:06;98706.56;;;12.63;85.89
57779;BME280;43608;49.486;9.640;2023-08-08T00:49:37;98723.28;;;12.71;85.87
57779;BME280;43608;49.486;9.640;2023-08-08T00:50:08;98724.16;;;12.75;85.60
57779;BME280;43608;49.486;9.640;2023-08-08T00:50:42;98717.94;;;12.73;85.92
57779;BME280;43608;49.486;9.640;2023-08-08T00:51:14;98725.00;;;12.76;85.88
57779;BME280;43608;49.486;9.640;2023-08-08T00:51:45;98719.72;;;12.74;85.81
57779;BME280;43608;49.486;9.640;2023-08-08T00:52:16;98727.69;;;12.74;85.74
57779;BME280;43608;49.486;9.640;2023-08-08T00:52:46;98722.38;;;12.74;85.88
57779;BME280;43608;49.486;9.640;2023-08-08T00:53:18;98725.03;;;12.74;85.83
57779;BME280;43608;49.486;9.640;2023-08-08T00:53:49;98708.31;;;12.66;85.67
57779;BME280;43608;49.486;9.640;2023-08-08T00:54:20;98713.59;;;12.67;85.80
57779;BME280;43608;49.486;9.640;2023-08-08T00:54:52;98727.69;;;12.74;85.73
57779;BME280;43608;49.486;9.640;2023-08-08T00:55:23;98725.03;;;12.74;85.96
57779;BME280;43608;49.486;9.640;2023-08-08T00:55:54;98692.50;;;12.52;85.51
57779;BME280;43608;49.486;9.640;2023-08-08T00:56:24;98701.31;;;12.57;85.67
57779;BME280;43608;49.486;9.640;2023-08-08T00:56:55;98717.13;;;12.68;85.55
57779;BME280;43608;49.486;9.640;2023-08-08T00:57:25;98693.34;;;12.57;85.50
57779;BME280;43608;49.486;9.640;2023-08-08T00:57:56;98716.22;;;12.70;85.70
57779;BME280;43608;49.486;9.640;2023-08-08T00:58:26;98718.94;;;12.66;85.34
57779;BME280;43608;49.486;9.640;2023-08-08T00:58:57;98711.81;;;12.69;85.57
57779;BME280;43608;49.486;9.640;2023-08-08T00:59:28;98710.97;;;12.63;85.46
57779;BME280;43608;49.486;9.640;2023-08-08T00:59:58;98718.03;;;12.68;85.39
57779;BME280;43608;49.486;9.640;2023-08-08T01:00:29;98709.25;;;12.62;85.44
57779;BME280;43608;49.486;9.640;2023-08-08T01:00:59;98720.69;;;12.68;85.52
57779;BME280;43608;49.486;9.640;2023-08-08T01:01:30;98696.94;;;12.53;85.49
57779;BME280;43608;49.486;9.640;2023-08-08T01:02:00;98697.81;;;12.55;85.37
57779;BME280;43608;49.486;9.640;2023-08-08T01:02:31;98699.56;;;12.58;85.52
57779;BME280;43608;49.486;9.640;2023-08-08T01:03:01;98692.50;;;12.52;85.58
57779;BME280;43608;49.486;9.640;2023-08-08T01:03:32;98688.09;;;12.51;85.35
57779;BME280;43608;49.486;9.640;2023-08-08T01:04:02;98663.47;;;12.35;85.27
57779;BME280;43608;49.486;9.640;2023-08-08T01:04:36;98694.28;;;12.53;85.57
57779;BME280;43608;49.486;9.640;2023-08-08T01:05:07;98718.94;;;12.66;85.57
57779;BME280;43608;49.486;9.640;2023-08-08T01:05:43;98709.22;;;12.63;85.51
57779;BME280;43608;49.486;9.640;2023-08-08T01:07:12;98707.41;;;12.65;85.71
57779;BME280;43608;49.486;9.640;2023-08-08T01:07:52;98711.88;;;12.65;85.67
57779;BME280;43608;49.486;9.640;2023-08-08T01:08:57;98718.06;;;12.64;85.87
57779;BME280;43608;49.486;9.640;2023-08-08T01:09:38;98694.31;;;12.51;85.63
57779;BME280;43608;49.486;9.640;2023-08-08T01:10:13;98715.41;;;12.64;85.46
57779;BME280;43608;49.486;9.640;2023-08-08T01:10:45;98696.03;;;12.55;85.46
57779;BME280;43608;49.486;9.640;2023-08-08T01:11:16;98699.53;;;12.59;85.50
57779;BME280;43608;49.486;9.640;2023-08-08T01:11:47;98709.25;;;12.62;85.35
57779;BME280;43608;49.486;9.640;2023-08-08T01:12:20;98707.47;;;12.61;85.39
57779;BME280;43608;49.486;9.640;2023-08-08T01:12:54;98712.75;;;12.67;85.47
57779;BME280;43608;49.486;9.640;2023-08-08T01:13:27;98696.03;;;12.55;85.53
57779;BME280;43608;49.486;9.640;2023-08-08T01:14:02;98696.00;;;12.57;85.38
57779;BME280;43608;49.486;9.640;2023-08-08T01:14:34;98700.38;;;12.61;85.32
57779;BME280;43608;49.486;9.640;2023-08-08T01:15:06;98691.59;;;12.58;85.58
57779;BME280;43608;49.486;9.640;2023-08-08T01:15:38;98697.72;;;12.61;85.41
57779;BME280;43608;49.486;9.640;2023-08-08T01:16:10;98707.38;;;12.68;85.51
57779;BME280;43608;49.486;9.640;2023-08-08T01:16:41;98705.69;;;12.61;85.45
57779;BME280;43608;49.486;9.640;2023-08-08T01:17:13;98703.03;;;12.64;85.70
57779;BME280;43608;49.486;9.640;2023-08-08T01:17:46;98692.47;;;12.56;85.53
57779;BME280;43608;49.486;9.640;2023-08-08T01:18:18;98720.66;;;12.70;85.65
57779;BME280;43608;49.486;9.640;2023-08-08T01:18:49;98694.25;;;12.58;85.63
57779;BME280;43608;49.486;9.640;2023-08-08T01:19:25;98721.53;;;12.72;85.59
57779;BME280;43608;49.486;9.640;2023-08-08T01:19:57;98695.97;;;12.60;85.65
57779;BME280;43608;49.486;9.640;2023-08-08T01:20:27;98695.97;;;12.60;85.38
57779;BME280;43608;49.486;9.640;2023-08-08T01:20:58;98709.19;;;12.66;85.65
57779;BME280;43608;49.486;9.640;2023-08-08T01:21:29;98696.81;;;12.62;85.45
57779;BME280;43608;49.486;9.640;2023-08-08T01:22:02;98693.34;;;12.57;85.24
57779;BME280;43608;49.486;9.640;2023-08-08T01:24:49;98709.13;;;12.71;85.28
57779;BME280;43608;49.486;9.640;2023-08-08T01:25:21;98706.50;;;12.66;85.10
57779;BME280;43608;49.486;9.640;2023-08-08T01:25:51;98714.41;;;12.74;85.23
57779;BME280;43608;49.486;9.640;2023-08-08T01:26:23;98701.25;;;12.63;85.21
57779;BME280;43608;49.486;9.640;2023-08-08T01:26:53;98711.75;;;12.74;85.33
57779;BME280;43608;49.486;9.640;2023-08-08T01:27:24;98703.84;;;12.69;85.19
57779;BME280;43608;49.486;9.640;2023-08-08T01:27:54;98694.13;;;12.64;85.21
57779;BME280;43608;49.486;9.640;2023-08-08T01:28:26;98688.91;;;12.58;85.25
57779;BME280;43608;49.486;9.640;2023-08-08T01:28:56;98713.53;;;12.73;85.07
57779;BME280;43608;49.486;9.640;2023-08-08T01:29:27;98709.09;;;12.74;85.19
57779;BME280;43608;49.486;9.640;2023-08-08T01:29:57;98706.44;;;12.72;85.35
57779;BME280;43608;49.486;9.640;2023-08-08T01:30:28;98704.66;;;12.75;85.25
57779;BME280;43608;49.486;9.640;2023-08-08T01:30:58;98680.88;;;12.62;85.37
57779;BME280;43608;49.486;9.640;2023-08-08T01:31:28;98704.66;;;12.73;85.46
57779;BME280;43608;49.486;9.640;2023-08-08T01:31:59;98682.66;;;12.62;85.26
57779;BME280;43608;49.486;9.640;2023-08-08T01:32:29;98685.31;;;12.62;85.47
57779;BME280;43608;49.486;9.640;2023-08-08T01:33:00;98680.06;;;12.57;85.33
57779;BME280;43608;49.486;9.640;2023-08-08T01:33:30;98691.56;;;12.59;85.58
57779;BME280;43608;49.486;9.640;2023-08-08T01:34:01;98689.84;;;12.55;85.57
57779;BME280;43608;49.486;9.640;2023-08-08T01:34:31;98695.94;;;12.63;85.46
57779;BME280;43608;49.486;9.640;2023-08-08T01:35:02;98673.91;;;12.52;85.53
57779;BME280;43608;49.486;9.640;2023-08-08T01:35:37;98672.16;;;12.49;85.74
57779;BME280;43608;49.486;9.640;2023-08-08T01:36:22;98651.94;;;12.37;85.94
57779;BME280;43608;49.486;9.640;2023-08-08T01:37:02;98688.91;;;12.56;85.66
57779;BME280;43608;49.486;9.640;2023-08-08T01:37:37;98709.25;;;12.62;85.96
57779;BME280;43608;49.486;9.640;2023-08-08T01:38:20;98698.66;;;12.57;85.76
57779;BME280;43608;49.486;9.640;2023-08-08T01:38:53;98703.09;;;12.58;86.08
57779;BME280;43608;49.486;9.640;2023-08-08T01:39:30;98700.44;;;12.58;86.23
57779;BME280;43608;49.486;9.640;2023-08-08T01:40:01;98705.78;;;12.56;86.24
57779;BME280;43608;49.486;9.640;2023-08-08T01:40:33;98676.72;;;12.39;86.22
57779;BME280;43608;49.486;9.640;2023-08-08T01:41:05;98682.03;;;12.38;86.32
57779;BME280;43608;49.486;9.640;2023-08-08T01:41:38;98704.91;;;12.53;86.38
57779;BME280;43608;49.486;9.640;2023-08-08T01:42:10;98693.53;;;12.42;86.45
57779;BME280;43608;49.486;9.640;2023-08-08T01:42:43;98703.19;;;12.49;86.56
57779;BME280;43608;49.486;9.640;2023-08-08T01:43:15;98702.34;;;12.45;86.68
57779;BME280;43608;49.486;9.640;2023-08-08T01:43:46;98706.78;;;12.46;86.61
57779;BME280;43608;49.486;9.640;2023-08-08T01:44:17;98701.50;;;12.42;86.75
57779;BME280;43608;49.486;9.640;2023-08-08T01:44:48;98704.19;;;12.40;86.79
57779;BME280;43608;49.486;9.640;2023-08-08T01:45:19;98697.13;;;12.36;86.95
57779;BME280;43608;49.486;9.640;2023-08-08T01:45:50;98686.56;;;12.30;87.05
57779;BME280;43608;49.486;9.640;2023-08-08T01:46:21;98698.91;;;12.35;87.08
57779;BME280;43608;49.486;9.640;2023-08-08T01:46:54;98707.72;;;12.39;87.03
57779;BME280;43608;49.486;9.640;2023-08-08T01:47:25;98686.63;;;12.25;87.37
57779;BME280;43608;49.486;9.640;2023-08-08T01:47:55;98686.56;;;12.30;87.22
57779;BME280;43608;49.486;9.640;2023-08-08T01:48:27;98685.72;;;12.26;87.37
57779;BME280;43608;49.486;9.640;2023-08-08T01:48:58;98700.69;;;12.35;87.15
57779;BME280;43608;49.486;9.640;2023-08-08T01:49:29;98689.28;;;12.25;87.07
57779;BME280;43608;49.486;9.640;2023-08-08T01:49:59;98704.22;;;12.35;87.30
57779;BME280;43608;49.486;9.640;2023-08-08T01:50:30;98706.03;;;12.33;87.39
57779;BME280;43608;49.486;9.640;2023-08-08T01:51:00;98705.13;;;12.33;87.50
57779;BME280;43608;49.486;9.640;2023-08-08T01:51:30;98680.50;;;12.20;87.33
57779;BME280;43608;49.486;9.640;2023-08-08T01:52:01;98704.25;;;12.32;87.47
57779;BME280;43608;49.486;9.640;2023-08-08T01:52:31;98685.81;;;12.18;87.38
57779;BME280;43608;49.486;9.640;2023-08-08T01:53:02;98681.41;;;12.17;87.39
57779;BME280;43608;49.486;9.640;2023-08-08T01:53:32;98684.91;;;12.22;87.42
57779;BME280;43608;49.486;9.640;2023-08-08T01:54:03;98691.06;;;12.25;87.58
57779;BME280;43608;49.486;9.640;2023-08-08T01:54:33;98698.13;;;12.27;87.66
57779;BME280;43608;49.486;9.640;2023-08-08T01:55:04;98659.34;;;12.07;87.36
57779;BME280;43608;49.486;9.640;2023-08-08T01:55:35;98685.84;;;12.15;87.67
57779;BME280;43608;49.486;9.640;2023-08-08T01:56:05;98698.13;;;12.26;87.36
57779;BME280;43608;49.486;9.640;2023-08-08T01:56:36;98675.28;;;12.09;87.59
57779;BME280;43608;49.486;9.640;2023-08-08T01:57:06;98685.81;;;12.17;87.82
57779;BME280;43608;49.486;9.640;2023-08-08T01:57:36;98698.16;;;12.21;87.73
57779;BME280;43608;49.486;9.640;2023-08-08T01:58:07;98687.59;;;12.18;87.47
57779;BME280;43608;49.486;9.640;2023-08-08T01:58:37;98683.22;;;12.12;87.67
57779;BME280;43608;49.486;9.640;2023-08-08T01:59:07;98677.03;;;12.10;87.55
57779;BME280;43608;49.486;9.640;2023-08-08T01:59:38;98657.69;;;11.97;87.44
57779;BME280;43608;49.486;9.640;2023-08-08T02:00:08;98678.84;;;12.06;87.65
57779;BME280;43608;49.486;9.640;2023-08-08T02:00:39;98683.25;;;12.09;87.69
57779;BME280;43608;49.486;9.640;2023-08-08T02:01:11;98676.19;;;12.06;87.53
57779;BME280;43608;49.486;9.640;2023-08-08T02:01:41;98670.97;;;12.00;87.63
57779;BME280;43608;49.486;9.640;2023-08-08T02:02:11;98687.66;;;12.10;87.92
57779;BME280;43608;49.486;9.640;2023-08-08T02:02:42;98693.88;;;12.12;87.81
57779;BME280;43608;49.486;9.640;2023-08-08T02:03:12;98680.66;;;12.04;87.65
57779;BME280;43608;49.486;9.640;2023-08-08T02:03:43;98699.16;;;12.14;87.81
57779;BME280;43608;49.486;9.640;2023-08-08T02:04:13;98675.41;;;11.98;87.57
57779;BME280;43608;49.486;9.640;2023-08-08T02:04:43;98671.88;;;11.96;87.90
57779;BME280;43608;49.486;9.640;2023-08-08T02:05:14;98682.47;;;12.01;87.76
57779;BME280;43608;49.486;9.640;2023-08-08T02:05:44;98692.13;;;12.06;87.86
57779;BME280;43608;49.486;9.640;2023-08-08T02:06:15;98704.50;;;12.12;87.61
57779;BME280;43608;49.486;9.640;2023-08-08T02:06:45;98693.91;;;12.06;87.75
57779;BME280;43608;49.486;9.640;2023-08-08T02:07:15;98679.81;;;11.99;87.60
57779;BME280;43608;49.486;9.640;2023-08-08T02:07:46;98695.66;;;12.05;87.56
57779;BME280;43608;49.486;9.640;2023-08-08T02:08:16;98690.41;;;12.02;87.49
57779;BME280;43608;49.486;9.640;2023-08-08T02:08:48;98691.28;;;12.03;87.92
57779;BME280;43608;49.486;9.640;2023-08-08T02:09:18;98674.53;;;11.93;87.60
57779;BME280;43608;49.486;9.640;2023-08-08T02:09:49;98689.50;;;12.03;87.54
57779;BME280;43608;49.486;9.640;2023-08-08T02:10:20;98684.25;;;12.00;87.79
57779;BME280;43608;49.486;9.640;2023-08-08T02:10:51;98686.91;;;12.00;87.60
57779;BME280;43608;49.486;9.640;2023-08-08T02:11:21;98684.22;;;11.99;87.69
57779;BME280;43608;49.486;9.640;2023-08-08T02:11:52;98683.38;;;11.98;87.80
57779;BME280;43608;49.486;9.640;2023-08-08T02:12:22;98663.97;;;11.87;87.79
57779;BME280;43608;49.486;9.640;2023-08-08T02:12:55;98693.00;;;12.09;87.66
57779;BME280;43608;49.486;9.640;2023-08-08T02:13:26;98708.06;;;12.10;87.82
57779;BME280;43608;49.486;9.640;2023-08-08T02:13:56;98690.38;;;12.04;87.54
57779;BME280;43608;49.486;9.640;2023-08-08T02:14:26;98703.66;;;12.07;87.81
57779;BME280;43608;49.486;9.640;2023-08-08T02:14:57;98682.50;;;11.96;87.82
57779;BME280;43608;49.486;9.640;2023-08-08T02:15:28;98685.97;;;12.01;87.76
57779;BME280;43608;49.486;9.640;2023-08-08T02:15:58;98697.41;;;12.08;87.68
57779;BME280;43608;49.486;9.640;2023-08-08T02:16:28;98706.25;;;12.10;87.61
57779;BME280;43608;49.486;9.640;2023-08-08T02:16:59;98694.78;;;12.06;87.59
57779;BME280;43608;49.486;9.640;2023-08-08T02:17:29;98663.94;;;11.90;87.60
57779;BME280;43608;49.486;9.640;2023-08-08T02:17:59;98666.56;;;11.93;87.58
57779;BME280;43608;49.486;9.640;2023-08-08T02:18:30;98684.25;;;12.00;87.61
57779;BME280;43608;49.486;9.640;2023-08-08T02:19:00;98688.63;;;12.01;87.46
57779;BME280;43608;49.486;9.640;2023-08-08T02:19:31;98678.06;;;11.92;87.46
57779;BME280;43608;49.486;9.640;2023-08-08T02:20:01;98683.38;;;11.98;87.44
57779;BME280;43608;49.486;9.640;2023-08-08T02:20:32;98698.34;;;12.07;87.71
57779;BME280;43608;49.486;9.640;2023-08-08T02:21:03;98688.69;;;11.97;87.67
57779;BME280;43608;49.486;9.640;2023-08-08T02:21:33;98693.94;;;12.04;87.78
57779;BME280;43608;49.486;9.640;2023-08-08T02:22:04;98679.81;;;11.95;87.59
57779;BME280;43608;49.486;9.640;2023-08-08T02:22:34;98681.56;;;11.99;87.77
57779;BME280;43608;49.486;9.640;2023-08-08T02:23:04;98674.56;;;11.88;87.77
57779;BME280;43608;49.486;9.640;2023-08-08T02:23:35;98690.47;;;11.96;87.73
57779;BME280;43608;49.486;9.640;2023-08-08T02:24:05;98670.16;;;11.86;87.79
57779;BME280;43608;49.486;9.640;2023-08-08T02:24:36;98683.38;;;11.92;87.93
57779;BME280;43608;49.486;9.640;2023-08-08T02:25:06;98667.50;;;11.89;87.89
57779;BME280;43608;49.486;9.640;2023-08-08T02:25:37;98700.16;;;12.02;88.08
57779;BME280;43608;49.486;9.640;2023-08-08T02:26:07;98695.75;;;12.01;88.01
57779;BME280;43608;49.486;9.640;2023-08-08T02:26:38;98689.59;;;11.96;87.93
57779;BME280;43608;49.486;9.640;2023-08-08T02:27:08;98694.84;;;11.99;88.11
57779;BME280;43608;49.486;9.640;2023-08-08T02:27:39;98688.69;;;11.94;88.03
57779;BME280;43608;49.486;9.640;2023-08-08T02:28:09;98702.81;;;11.99;88.03
57779;BME280;43608;49.486;9.640;2023-08-08T02:28:39;98681.63;;;11.89;88.08
57779;BME280;43608;49.486;9.640;2023-08-08T02:29:11;98694.03;;;11.95;88.13
57779;BME280;43608;49.486;9.640;2023-08-08T02:29:41;98701.09;;;11.96;88.19
57779;BME280;43608;49.486;9.640;2023-08-08T02:30:12;98679.91;;;11.85;88.05
57779;BME280;43608;49.486;9.640;2023-08-08T02:30:44;98703.72;;;11.95;88.15
57779;BME280;43608;49.486;9.640;2023-08-08T02:31:14;98688.75;;;11.89;88.13
57779;BME280;43608;49.486;9.640;2023-08-08T02:31:50;98677.28;;;11.81;88.21
57779;BME280;43608;49.486;9.640;2023-08-08T02:32:20;98693.13;;;11.92;88.35
57779;BME280;43608;49.486;9.640;2023-08-08T02:32:51;98680.88;;;11.80;88.26
57779;BME280;43608;49.486;9.640;2023-08-08T02:33:21;98680.00;;;11.76;88.40
57779;BME280;43608;49.486;9.640;2023-08-08T02:33:52;98694.94;;;11.88;88.40
57779;BME280;43608;49.486;9.640;2023-08-08T02:34:22;98686.13;;;11.83;88.63
57779;BME280;43608;49.486;9.640;2023-08-08T02:34:52;98687.00;;;11.83;88.62
57779;BME280;43608;49.486;9.640;2023-08-08T02:35:23;98690.50;;;11.87;88.58
57779;BME280;43608;49.486;9.640;2023-08-08T02:35:53;98677.38;;;11.74;88.69
57779;BME280;43608;49.486;9.640;2023-08-08T02:36:23;98678.22;;;11.77;88.57
57779;BME280;43608;49.486;9.640;2023-08-08T02:36:54;98685.31;;;11.76;88.66
57779;BME280;43608;49.486;9.640;2023-08-08T02:37:24;98690.59;;;11.79;88.67
57779;BME280;43608;49.486;9.640;2023-08-08T02:37:55;98675.66;;;11.70;88.86
57779;BME280;43608;49.486;9.640;2023-08-08T02:38:25;98678.28;;;11.72;88.75
57779;BME280;43608;49.486;9.640;2023-08-08T02:38:55;98682.69;;;11.71;88.45
57779;BME280;43608;49.486;9.640;2023-08-08T02:39:26;98682.69;;;11.71;88.93
57779;BME280;43608;49.486;9.640;2023-08-08T02:39:56;98687.13;;;11.71;89.21
57779;BME280;43608;49.486;9.640;2023-08-08T02:40:26;98686.25;;;11.70;89.11
57779;BME280;43608;49.486;9.640;2023-08-08T02:40:57;98668.63;;;11.62;89.03
57779;BME280;43608;49.486;9.640;2023-08-08T02:41:27;98681.84;;;11.69;89.11
57779;BME280;43608;49.486;9.640;2023-08-08T02:41:57;98686.22;;;11.73;89.33
57779;BME280;43608;49.486;9.640;2023-08-08T02:42:28;98673.06;;;11.63;89.28
57779;BME280;43608;49.486;9.640;2023-08-08T02:42:58;98688.00;;;11.71;89.32
57779;BME280;43608;49.486;9.640;2023-08-08T02:43:29;98656.34;;;11.50;89.24
57779;BME280;43608;49.486;9.640;2023-08-08T02:43:59;98691.56;;;11.69;89.62
57779;BME280;43608;49.486;9.640;2023-08-08T02:44:29;98692.47;;;11.69;89.61
57779;BME280;43608;49.486;9.640;2023-08-08T02:45:00;98699.53;;;11.69;89.60
57779;BME280;43608;49.486;9.640;2023-08-08T02:45:30;98681.09;;;11.55;89.87
57779;BME280;43608;49.486;9.640;2023-08-08T02:46:00;98678.38;;;11.60;89.63
57779;BME280;43608;49.486;9.640;2023-08-08T02:46:31;98695.13;;;11.65;89.72
57779;BME280;43608;49.486;9.640;2023-08-08T02:47:01;98679.28;;;11.55;89.73
57779;BME280;43608;49.486;9.640;2023-08-08T02:47:32;98674.03;;;11.52;89.68
57779;BME280;43608;49.486;9.640;2023-08-08T02:48:02;98702.22;;;11.66;89.80